sensor_id;sensor_type;location;lat;lon;timestamp;P1;durP1;ratioP1;P2;durP2;ratioP2
12451;SDS011;6291;48.924;12.204;2023-04-06T00:01:27;5.50;;;4.00;;
12451;SDS011;6291;48.924;12.204;2023-04-06T00:06:31;4.03;;;3.47;;
12451;SDS011;6291;48.924;12.204;2023-04-06T00:11:36;4.45;;;3.60;;
12451;SDS011;6291;48.924;12.204;2023-04-06T00:16:39;4.97;;;3.80;;
12451;SDS011;6291;48.924;12.204;2023-04-06T00:21:42;5.35;;;4.05;;
12451;SDS011;6291;48.924;12.204;2023-04-06T00:26:47;5.45;;;3.97;;
12451;SDS011;6291;48.924;12.204;2023-04-06T00:31:50;5.85;;;4.30;;
12451;SDS011;6291;48.924;12.204;2023-04-06T00:36:54;6.05;;;3.88;;
12451;SDS011;6291;48.924;12.204;2023-04-06T00:41:59;6.35;;;4.13;;
12451;SDS011;6291;48.924;12.204;2023-04-06T00:47:03;5.28;;;4.00;;
12451;SDS011;6291;48.924;12.204;2023-04-06T00:52:07;5.13;;;3.90;;
12451;SDS011;6291;48.924;12.204;2023-04-06T00:57:12;5.22;;;4.15;;
12451;SDS011;6291;48.924;12.204;2023-04-06T01:02:18;6.28;;;4.20;;
12451;SDS011;6291;48.924;12.204;2023-04-06T01:07:25;6.33;;;4.20;;
12451;SDS011;6291;48.924;12.204;2023-04-06T01:12:46;5.13;;;4.10;;
12451;SDS011;6291;48.924;12.204;2023-04-06T01:17:57;6.28;;;4.43;;
12451;SDS011;6291;48.924;12.204;2023-04-06T01:23:02;7.22;;;5.47;;
12451;SDS011;6291;48.924;12.204;2023-04-06T01:28:06;6.78;;;4.35;;
12451;SDS011;6291;48.924;12.204;2023-04-06T01:33:27;5.45;;;4.32;;
12451;SDS011;6291;48.924;12.204;2023-04-06T01:38:36;6.10;;;4.00;;
12451;SDS011;6291;48.924;12.204;2023-04-06T01:43:41;6.13;;;4.30;;
12451;SDS011;6291;48.924;12.204;2023-04-06T01:48:45;6.27;;;4.50;;
12451;SDS011;6291;48.924;12.204;2023-04-06T01:53:57;6.50;;;4.65;;
12451;SDS011;6291;48.924;12.204;2023-04-06T01:59:39;6.35;;;4.18;;
12451;SDS011;6291;48.924;12.204;2023-04-06T02:04:58;6.72;;;4.70;;
12451;SDS011;6291;48.924;12.204;2023-04-06T02:10:04;6.95;;;4.50;;
12451;SDS011;6291;48.924;12.204;2023-04-06T02:15:13;6.10;;;4.38;;
12451;SDS011;6291;48.924;12.204;2023-04-06T02:20:17;6.93;;;4.73;;
12451;SDS011;6291;48.924;12.204;2023-04-06T02:25:21;6.28;;;4.55;;
12451;SDS011;6291;48.924;12.204;2023-04-06T02:30:25;5.37;;;4.73;;
12451;SDS011;6291;48.924;12.204;2023-04-06T02:35:30;6.13;;;4.70;;
12451;SDS011;6291;48.924;12.204;2023-04-06T02:40:35;6.68;;;4.80;;
12451;SDS011;6291;48.924;12.204;2023-04-06T02:45:49;8.27;;;4.82;;
12451;SDS011;6291;48.924;12.204;2023-04-06T02:50:56;6.30;;;4.70;;
12451;SDS011;6291;48.924;12.204;2023-04-06T02:56:02;6.13;;;4.77;;
12451;SDS011;6291;48.924;12.204;2023-04-06T03:01:18;7.15;;;5.00;;
12451;SDS011;6291;48.924;12.204;2023-04-06T03:06:29;10.32;;;5.28;;
12451;SDS011;6291;48.924;12.204;2023-04-06T03:11:43;7.32;;;5.22;;
12451;SDS011;6291;48.924;12.204;2023-04-06T03:16:47;7.97;;;5.47;;
12451;SDS011;6291;48.924;12.204;2023-04-06T03:21:55;6.82;;;5.38;;
12451;SDS011;6291;48.924;12.204;2023-04-06T03:27:00;6.10;;;5.07;;
12451;SDS011;6291;48.924;12.204;2023-04-06T03:32:05;9.02;;;5.85;;
12451;SDS011;6291;48.924;12.204;2023-04-06T03:37:14;9.13;;;6.57;;
12451;SDS011;6291;48.924;12.204;2023-04-06T03:42:25;7.40;;;6.50;;
12451;SDS011;6291;48.924;12.204;2023-04-06T03:47:36;10.98;;;9.48;;
12451;SDS011;6291;48.924;12.204;2023-04-06T03:52:41;12.07;;;9.43;;
12451;SDS011;6291;48.924;12.204;2023-04-06T03:57:47;9.60;;;7.93;;
12451;SDS011;6291;48.924;12.204;2023-04-06T04:02:52;11.38;;;8.18;;
12451;SDS011;6291;48.924;12.204;2023-04-06T04:07:55;11.93;;;8.30;;
12451;SDS011;6291;48.924;12.204;2023-04-06T04:13:02;10.65;;;7.72;;
12451;SDS011;6291;48.924;12.204;2023-04-06T04:18:06;9.67;;;7.67;;
12451;SDS011;6291;48.924;12.204;2023-04-06T04:23:09;13.90;;;10.00;;
12451;SDS011;6291;48.924;12.204;2023-04-06T04:28:14;12.40;;;8.37;;
12451;SDS011;6291;48.924;12.204;2023-04-06T04:33:19;10.83;;;7.87;;
12451;SDS011;6291;48.924;12.204;2023-04-06T04:38:24;12.23;;;9.07;;
12451;SDS011;6291;48.924;12.204;2023-04-06T04:43:31;13.68;;;10.07;;
12451;SDS011;6291;48.924;12.204;2023-04-06T04:48:36;10.48;;;8.60;;
12451;SDS011;6291;48.924;12.204;2023-04-06T04:53:42;11.90;;;8.70;;
12451;SDS011;6291;48.924;12.204;2023-04-06T04:58:55;11.80;;;8.48;;
12451;SDS011;6291;48.924;12.204;2023-04-06T05:04:02;12.30;;;8.57;;
12451;SDS011;6291;48.924;12.204;2023-04-06T05:09:06;13.33;;;9.90;;
12451;SDS011;6291;48.924;12.204;2023-04-06T05:14:12;12.13;;;8.80;;
12451;SDS011;6291;48.924;12.204;2023-04-06T05:19:16;14.40;;;9.80;;
12451;SDS011;6291;48.924;12.204;2023-04-06T05:24:20;10.73;;;7.60;;
12451;SDS011;6291;48.924;12.204;2023-04-06T05:29:26;9.87;;;7.10;;
12451;SDS011;6291;48.924;12.204;2023-04-06T05:34:30;8.98;;;6.75;;
12451;SDS011;6291;48.924;12.204;2023-04-06T05:39:37;9.27;;;7.40;;
12451;SDS011;6291;48.924;12.204;2023-04-06T05:44:42;7.95;;;6.38;;
12451;SDS011;6291;48.924;12.204;2023-04-06T05:49:49;7.23;;;5.53;;
12451;SDS011;6291;48.924;12.204;2023-04-06T05:55:04;6.68;;;5.07;;
12451;SDS011;6291;48.924;12.204;2023-04-06T06:00:13;9.30;;;5.05;;
12451;SDS011;6291;48.924;12.204;2023-04-06T06:05:28;6.43;;;4.40;;
12451;SDS011;6291;48.924;12.204;2023-04-06T06:10:38;5.30;;;4.25;;
12451;SDS011;6291;48.924;12.204;2023-04-06T06:15:46;5.68;;;4.20;;
12451;SDS011;6291;48.924;12.204;2023-04-06T06:20:52;6.27;;;5.10;;
12451;SDS011;6291;48.924;12.204;2023-04-06T06:25:55;6.93;;;4.70;;
12451;SDS011;6291;48.924;12.204;2023-04-06T06:31:03;5.78;;;4.70;;
12451;SDS011;6291;48.924;12.204;2023-04-06T06:36:06;5.82;;;4.70;;
12451;SDS011;6291;48.924;12.204;2023-04-06T06:41:11;5.37;;;4.30;;
12451;SDS011;6291;48.924;12.204;2023-04-06T06:46:17;5.97;;;4.13;;
12451;SDS011;6291;48.924;12.204;2023-04-06T06:51:20;6.18;;;4.60;;
12451;SDS011;6291;48.924;12.204;2023-04-06T06:56:23;5.05;;;4.10;;
12451;SDS011;6291;48.924;12.204;2023-04-06T07:01:30;5.90;;;3.92;;
12451;SDS011;6291;48.924;12.204;2023-04-06T07:06:35;5.65;;;4.13;;
12451;SDS011;6291;48.924;12.204;2023-04-06T07:11:40;9.15;;;6.68;;
12451;SDS011;6291;48.924;12.204;2023-04-06T07:16:45;5.53;;;4.60;;
12451;SDS011;6291;48.924;12.204;2023-04-06T07:21:50;7.35;;;4.65;;
12451;SDS011;6291;48.924;12.204;2023-04-06T07:26:53;6.20;;;4.47;;
12451;SDS011;6291;48.924;12.204;2023-04-06T07:31:59;6.25;;;3.97;;
12451;SDS011;6291;48.924;12.204;2023-04-06T07:37:03;4.95;;;3.85;;
12451;SDS011;6291;48.924;12.204;2023-04-06T07:42:07;5.32;;;3.80;;
12451;SDS011;6291;48.924;12.204;2023-04-06T07:47:12;5.32;;;3.83;;
12451;SDS011;6291;48.924;12.204;2023-04-06T07:52:16;4.60;;;3.70;;
12451;SDS011;6291;48.924;12.204;2023-04-06T07:57:20;6.13;;;3.92;;
12451;SDS011;6291;48.924;12.204;2023-04-06T08:02:24;5.03;;;3.88;;
12451;SDS011;6291;48.924;12.204;2023-04-06T08:07:28;4.95;;;4.05;;
12451;SDS011;6291;48.924;12.204;2023-04-06T08:12:31;5.10;;;3.90;;
12451;SDS011;6291;48.924;12.204;2023-04-06T08:17:36;6.43;;;4.38;;
12451;SDS011;6291;48.924;12.204;2023-04-06T08:22:40;4.67;;;4.13;;
12451;SDS011;6291;48.924;12.204;2023-04-06T08:27:43;5.25;;;4.28;;
12451;SDS011;6291;48.924;12.204;2023-04-06T08:32:48;4.72;;;4.32;;
12451;SDS011;6291;48.924;12.204;2023-04-06T08:37:51;5.07;;;4.32;;
12451;SDS011;6291;48.924;12.204;2023-04-06T08:42:55;5.35;;;4.40;;
12451;SDS011;6291;48.924;12.204;2023-04-06T08:48:05;5.97;;;4.68;;
12451;SDS011;6291;48.924;12.204;2023-04-06T08:53:08;5.23;;;4.53;;
12451;SDS011;6291;48.924;12.204;2023-04-06T08:58:13;6.97;;;4.40;;
12451;SDS011;6291;48.924;12.204;2023-04-06T09:03:38;5.17;;;4.27;;
12451;SDS011;6291;48.924;12.204;2023-04-06T09:08:42;5.07;;;4.50;;
12451;SDS011;6291;48.924;12.204;2023-04-06T09:13:46;4.27;;;3.70;;
12451;SDS011;6291;48.924;12.204;2023-04-06T09:18:51;4.40;;;4.00;;
12451;SDS011;6291;48.924;12.204;2023-04-06T09:23:58;4.47;;;3.60;;
12451;SDS011;6291;48.924;12.204;2023-04-06T09:29:02;4.43;;;4.03;;
12451;SDS011;6291;48.924;12.204;2023-04-06T09:34:20;4.88;;;3.72;;
12451;SDS011;6291;48.924;12.204;2023-04-06T09:39:24;4.13;;;3.70;;
12451;SDS011;6291;48.924;12.204;2023-04-06T09:44:29;4.55;;;4.03;;
12451;SDS011;6291;48.924;12.204;2023-04-06T09:49:34;3.53;;;3.15;;
12451;SDS011;6291;48.924;12.204;2023-04-06T09:54:38;4.60;;;4.05;;
12451;SDS011;6291;48.924;12.204;2023-04-06T09:59:43;4.45;;;3.33;;
12451;SDS011;6291;48.924;12.204;2023-04-06T10:04:55;3.87;;;3.47;;
12451;SDS011;6291;48.924;12.204;2023-04-06T10:10:05;5.33;;;4.30;;
12451;SDS011;6291;48.924;12.204;2023-04-06T10:15:10;4.40;;;3.77;;
12451;SDS011;6291;48.924;12.204;2023-04-06T10:20:16;4.35;;;3.95;;
12451;SDS011;6291;48.924;12.204;2023-04-06T10:25:26;5.25;;;4.22;;
12451;SDS011;6291;48.924;12.204;2023-04-06T10:30:30;5.38;;;4.05;;
12451;SDS011;6291;48.924;12.204;2023-04-06T10:35:40;5.00;;;4.10;;
12451;SDS011;6291;48.924;12.204;2023-04-06T10:40:43;5.10;;;4.55;;
12451;SDS011;6291;48.924;12.204;2023-04-06T10:45:54;4.75;;;4.22;;
12451;SDS011;6291;48.924;12.204;2023-04-06T10:51:00;5.05;;;4.60;;
12451;SDS011;6291;48.924;12.204;2023-04-06T10:56:04;5.05;;;4.55;;
12451;SDS011;6291;48.924;12.204;2023-04-06T11:01:14;5.00;;;4.47;;
12451;SDS011;6291;48.924;12.204;2023-04-06T11:06:20;5.97;;;4.80;;
12451;SDS011;6291;48.924;12.204;2023-04-06T11:11:25;5.43;;;4.45;;
12451;SDS011;6291;48.924;12.204;2023-04-06T11:16:29;5.40;;;4.78;;
12451;SDS011;6291;48.924;12.204;2023-04-06T11:21:36;5.68;;;4.63;;
12451;SDS011;6291;48.924;12.204;2023-04-06T11:26:41;5.88;;;4.80;;
12451;SDS011;6291;48.924;12.204;2023-04-06T11:31:46;5.25;;;4.75;;
12451;SDS011;6291;48.924;12.204;2023-04-06T11:36:55;4.80;;;4.30;;
12451;SDS011;6291;48.924;12.204;2023-04-06T11:42:00;4.90;;;4.10;;
12451;SDS011;6291;48.924;12.204;2023-04-06T11:47:09;4.57;;;4.18;;
12451;SDS011;6291;48.924;12.204;2023-04-06T11:52:18;5.10;;;4.60;;
12451;SDS011;6291;48.924;12.204;2023-04-06T11:57:23;5.23;;;4.73;;
12451;SDS011;6291;48.924;12.204;2023-04-06T12:02:27;4.90;;;4.40;;
12451;SDS011;6291;48.924;12.204;2023-04-06T12:07:31;6.75;;;5.15;;
12451;SDS011;6291;48.924;12.204;2023-04-06T12:12:35;7.18;;;6.18;;
12451;SDS011;6291;48.924;12.204;2023-04-06T12:17:38;5.25;;;4.65;;
12451;SDS011;6291;48.924;12.204;2023-04-06T12:22:43;5.10;;;4.60;;
12451;SDS011;6291;48.924;12.204;2023-04-06T12:27:46;5.43;;;4.80;;
12451;SDS011;6291;48.924;12.204;2023-04-06T12:32:50;6.00;;;5.38;;
12451;SDS011;6291;48.924;12.204;2023-04-06T12:37:55;5.67;;;5.00;;
12451;SDS011;6291;48.924;12.204;2023-04-06T12:42:58;5.35;;;4.85;;
12451;SDS011;6291;48.924;12.204;2023-04-06T12:48:01;5.90;;;5.23;;
12451;SDS011;6291;48.924;12.204;2023-04-06T12:53:06;6.22;;;5.05;;
12451;SDS011;6291;48.924;12.204;2023-04-06T12:58:09;4.95;;;4.55;;
12451;SDS011;6291;48.924;12.204;2023-04-06T13:03:13;4.85;;;4.45;;
12451;SDS011;6291;48.924;12.204;2023-04-06T13:08:18;5.40;;;4.90;;
12451;SDS011;6291;48.924;12.204;2023-04-06T13:13:22;4.82;;;4.35;;
12451;SDS011;6291;48.924;12.204;2023-04-06T13:18:27;4.70;;;4.10;;
12451;SDS011;6291;48.924;12.204;2023-04-06T13:23:31;4.80;;;4.40;;
12451;SDS011;6291;48.924;12.204;2023-04-06T13:28:35;4.43;;;4.03;;
12451;SDS011;6291;48.924;12.204;2023-04-06T13:33:40;4.80;;;4.40;;
12451;SDS011;6291;48.924;12.204;2023-04-06T13:38:45;4.85;;;4.45;;
12451;SDS011;6291;48.924;12.204;2023-04-06T13:43:48;5.38;;;4.88;;
12451;SDS011;6291;48.924;12.204;2023-04-06T13:48:52;4.63;;;4.22;;
12451;SDS011;6291;48.924;12.204;2023-04-06T13:53:57;5.10;;;4.60;;
12451;SDS011;6291;48.924;12.204;2023-04-06T13:59:02;4.60;;;4.20;;
12451;SDS011;6291;48.924;12.204;2023-04-06T14:04:06;5.32;;;4.70;;
12451;SDS011;6291;48.924;12.204;2023-04-06T14:09:11;5.90;;;5.30;;
12451;SDS011;6291;48.924;12.204;2023-04-06T14:14:14;4.82;;;4.13;;
12451;SDS011;6291;48.924;12.204;2023-04-06T14:19:18;6.07;;;4.70;;
12451;SDS011;6291;48.924;12.204;2023-04-06T14:24:23;5.10;;;4.60;;
12451;SDS011;6291;48.924;12.204;2023-04-06T14:29:28;5.15;;;4.63;;
12451;SDS011;6291;48.924;12.204;2023-04-06T14:34:31;5.30;;;4.80;;
12451;SDS011;6291;48.924;12.204;2023-04-06T14:39:36;5.53;;;5.03;;
12451;SDS011;6291;48.924;12.204;2023-04-06T14:44:39;5.03;;;4.57;;
12451;SDS011;6291;48.924;12.204;2023-04-06T14:49:46;5.25;;;4.75;;
12451;SDS011;6291;48.924;12.204;2023-04-06T14:54:51;4.90;;;4.40;;
12451;SDS011;6291;48.924;12.204;2023-04-06T14:59:54;4.95;;;4.55;;
12451;SDS011;6291;48.924;12.204;2023-04-06T15:04:58;7.07;;;6.13;;
12451;SDS011;6291;48.924;12.204;2023-04-06T15:10:03;5.30;;;4.80;;
12451;SDS011;6291;48.924;12.204;2023-04-06T15:15:08;5.13;;;4.60;;
12451;SDS011;6291;48.924;12.204;2023-04-06T15:20:12;5.68;;;5.18;;
12451;SDS011;6291;48.924;12.204;2023-04-06T15:25:17;5.67;;;4.70;;
12451;SDS011;6291;48.924;12.204;2023-04-06T15:30:21;6.10;;;4.80;;
12451;SDS011;6291;48.924;12.204;2023-04-06T15:35:25;5.00;;;4.50;;
12451;SDS011;6291;48.924;12.204;2023-04-06T15:40:30;5.13;;;4.63;;
12451;SDS011;6291;48.924;12.204;2023-04-06T15:45:37;5.82;;;5.13;;
12451;SDS011;6291;48.924;12.204;2023-04-06T15:50:42;6.10;;;5.50;;
12451;SDS011;6291;48.924;12.204;2023-04-06T15:55:46;5.72;;;5.00;;
12451;SDS011;6291;48.924;12.204;2023-04-06T16:00:50;5.88;;;4.97;;
12451;SDS011;6291;48.924;12.204;2023-04-06T16:05:53;7.10;;;6.20;;
12451;SDS011;6291;48.924;12.204;2023-04-06T16:11:10;5.90;;;5.30;;
12451;SDS011;6291;48.924;12.204;2023-04-06T16:16:13;5.57;;;5.00;;
12451;SDS011;6291;48.924;12.204;2023-04-06T16:21:17;6.00;;;5.40;;
12451;SDS011;6291;48.924;12.204;2023-04-06T16:26:22;6.75;;;4.95;;
12451;SDS011;6291;48.924;12.204;2023-04-06T16:31:26;6.20;;;5.60;;
12451;SDS011;6291;48.924;12.204;2023-04-06T16:36:29;5.80;;;5.20;;
12451;SDS011;6291;48.924;12.204;2023-04-06T16:41:35;5.80;;;5.30;;
12451;SDS011;6291;48.924;12.204;2023-04-06T16:46:39;7.60;;;6.10;;
12451;SDS011;6291;48.924;12.204;2023-04-06T16:51:44;7.53;;;6.73;;
12451;SDS011;6291;48.924;12.204;2023-04-06T16:56:49;8.20;;;6.53;;
12451;SDS011;6291;48.924;12.204;2023-04-06T17:01:52;7.70;;;6.82;;
12451;SDS011;6291;48.924;12.204;2023-04-06T17:06:56;7.70;;;6.90;;
12451;SDS011;6291;48.924;12.204;2023-04-06T17:12:00;10.15;;;7.80;;
12451;SDS011;6291;48.924;12.204;2023-04-06T17:17:04;8.00;;;6.93;;
12451;SDS011;6291;48.924;12.204;2023-04-06T17:22:07;7.90;;;6.60;;
12451;SDS011;6291;48.924;12.204;2023-04-06T17:27:12;7.70;;;6.47;;
12451;SDS011;6291;48.924;12.204;2023-04-06T17:32:15;10.88;;;6.18;;
12451;SDS011;6291;48.924;12.204;2023-04-06T17:37:20;6.45;;;5.55;;
12451;SDS011;6291;48.924;12.204;2023-04-06T17:42:25;10.05;;;6.75;;
12451;SDS011;6291;48.924;12.204;2023-04-06T17:47:28;9.18;;;7.07;;
12451;SDS011;6291;48.924;12.204;2023-04-06T17:52:33;9.00;;;7.70;;
12451;SDS011;6291;48.924;12.204;2023-04-06T17:57:38;11.25;;;8.93;;
12451;SDS011;6291;48.924;12.204;2023-04-06T18:02:43;26.10;;;16.33;;
12451;SDS011;6291;48.924;12.204;2023-04-06T18:07:47;12.73;;;10.25;;
12451;SDS011;6291;48.924;12.204;2023-04-06T18:12:54;11.43;;;9.07;;
12451;SDS011;6291;48.924;12.204;2023-04-06T18:17:57;12.85;;;10.70;;
12451;SDS011;6291;48.924;12.204;2023-04-06T18:23:01;10.85;;;9.30;;
12451;SDS011;6291;48.924;12.204;2023-04-06T18:28:06;10.97;;;9.20;;
12451;SDS011;6291;48.924;12.204;2023-04-06T18:33:11;12.63;;;9.33;;
12451;SDS011;6291;48.924;12.204;2023-04-06T18:38:14;17.58;;;13.90;;
12451;SDS011;6291;48.924;12.204;2023-04-06T18:43:19;20.70;;;15.63;;
12451;SDS011;6291;48.924;12.204;2023-04-06T19:18:54;17.65;;;13.60;;
12451;SDS011;6291;48.924;12.204;2023-04-06T19:23:57;28.92;;;20.98;;
12451;SDS011;6291;48.924;12.204;2023-04-06T19:29:02;28.07;;;19.30;;
12451;SDS011;6291;48.924;12.204;2023-04-06T19:34:05;29.55;;;19.95;;
12451;SDS011;6291;48.924;12.204;2023-04-06T19:39:09;32.88;;;22.20;;
12451;SDS011;6291;48.924;12.204;2023-04-06T19:44:13;19.85;;;13.80;;
12451;SDS011;6291;48.924;12.204;2023-04-06T19:49:17;16.70;;;11.57;;
12451;SDS011;6291;48.924;12.204;2023-04-06T19:54:20;16.55;;;10.80;;
12451;SDS011;6291;48.924;12.204;2023-04-06T19:59:26;20.65;;;13.50;;
12451;SDS011;6291;48.924;12.204;2023-04-06T20:04:29;24.73;;;15.90;;
12451;SDS011;6291;48.924;12.204;2023-04-06T20:09:33;26.95;;;17.10;;
12451;SDS011;6291;48.924;12.204;2023-04-06T20:14:38;37.33;;;22.20;;
12451;SDS011;6291;48.924;12.204;2023-04-06T20:19:41;37.27;;;22.27;;
12451;SDS011;6291;48.924;12.204;2023-04-06T20:24:45;17.00;;;12.40;;
12451;SDS011;6291;48.924;12.204;2023-04-06T20:29:49;13.33;;;9.97;;
12451;SDS011;6291;48.924;12.204;2023-04-06T20:34:54;11.35;;;8.10;;
12451;SDS011;6291;48.924;12.204;2023-04-06T20:45:03;12.43;;;9.17;;
12451;SDS011;6291;48.924;12.204;2023-04-06T20:50:07;13.75;;;9.80;;
12451;SDS011;6291;48.924;12.204;2023-04-06T20:55:11;12.00;;;9.23;;
12451;SDS011;6291;48.924;12.204;2023-04-06T21:00:16;12.15;;;8.82;;
12451;SDS011;6291;48.924;12.204;2023-04-06T21:05:20;12.23;;;9.43;;
12451;SDS011;6291;48.924;12.204;2023-04-06T21:10:23;13.32;;;10.05;;
12451;SDS011;6291;48.924;12.204;2023-04-06T21:15:28;12.13;;;9.75;;
12451;SDS011;6291;48.924;12.204;2023-04-06T21:20:31;11.45;;;9.73;;
12451;SDS011;6291;48.924;12.204;2023-04-06T21:25:35;12.60;;;10.20;;
12451;SDS011;6291;48.924;12.204;2023-04-06T21:30:40;12.82;;;9.70;;
12451;SDS011;6291;48.924;12.204;2023-04-06T21:35:44;11.07;;;9.40;;
12451;SDS011;6291;48.924;12.204;2023-04-06T21:40:52;12.63;;;9.77;;
12451;SDS011;6291;48.924;12.204;2023-04-06T21:45:57;13.32;;;9.88;;
12451;SDS011;6291;48.924;12.204;2023-04-06T21:51:01;13.77;;;9.82;;
12451;SDS011;6291;48.924;12.204;2023-04-06T21:56:04;13.03;;;10.33;;
12451;SDS011;6291;48.924;12.204;2023-04-06T22:01:09;16.02;;;11.25;;
12451;SDS011;6291;48.924;12.204;2023-04-06T22:06:13;13.32;;;10.90;;
12451;SDS011;6291;48.924;12.204;2023-04-06T22:11:17;15.70;;;10.90;;
12451;SDS011;6291;48.924;12.204;2023-04-06T22:16:27;14.43;;;11.40;;
12451;SDS011;6291;48.924;12.204;2023-04-06T22:21:30;14.23;;;10.18;;
12451;SDS011;6291;48.924;12.204;2023-04-06T22:26:34;14.67;;;11.03;;
12451;SDS011;6291;48.924;12.204;2023-04-06T22:31:38;14.82;;;10.90;;
12451;SDS011;6291;48.924;12.204;2023-04-06T22:36:42;13.23;;;10.80;;
12451;SDS011;6291;48.924;12.204;2023-04-06T22:41:45;14.15;;;10.88;;
12451;SDS011;6291;48.924;12.204;2023-04-06T22:46:50;13.32;;;10.85;;
12451;SDS011;6291;48.924;12.204;2023-04-06T22:51:53;13.30;;;9.90;;
12451;SDS011;6291;48.924;12.204;2023-04-06T22:56:57;11.48;;;9.75;;
12451;SDS011;6291;48.924;12.204;2023-04-06T23:02:01;13.20;;;7.00;;
12451;SDS011;6291;48.924;12.204;2023-04-06T23:07:05;9.10;;;6.03;;
12451;SDS011;6291;48.924;12.204;2023-04-06T23:12:08;8.03;;;6.20;;
12451;SDS011;6291;48.924;12.204;2023-04-06T23:17:13;8.17;;;5.00;;
12451;SDS011;6291;48.924;12.204;2023-04-06T23:22:16;8.13;;;5.33;;
12451;SDS011;6291;48.924;12.204;2023-04-06T23:27:20;7.63;;;4.70;;
12451;SDS011;6291;48.924;12.204;2023-04-06T23:32:24;7.47;;;5.57;;
12451;SDS011;6291;48.924;12.204;2023-04-06T23:37:28;7.67;;;5.13;;
12451;SDS011;6291;48.924;12.204;2023-04-06T23:42:31;9.67;;;4.83;;
12451;SDS011;6291;48.924;12.204;2023-04-06T23:47:36;7.07;;;5.10;;
12451;SDS011;6291;48.924;12.204;2023-04-06T23:52:39;11.47;;;5.93;;
12451;SDS011;6291;48.924;12.204;2023-04-06T23:57:43;7.07;;;4.53;;
